Time,TemperatureF,DewpointF,PressureIn,WindDirection,WindDirectionDegrees,WindSpeedMPH,WindSpeedGustMPH,Humidity,HourlyPrecipIn,Conditions,Clouds,dailyrainin,SoftwareType,DateUTC
2013-07-25 00:14:00,57.4,55.4,29.89,NE,45,0.0,-999.0,93,-99.99,,,0.00,Acu-Link.com,2013-07-25 04:14:00,
2013-07-25 00:30:00,56.3,54.9,29.90,SW,225,0.0,-999.0,95,-99.99,,,0.00,Acu-Link.com,2013-07-25 04:30:00,
2013-07-25 00:46:00,55.4,54.0,29.90,WSW,247,0.0,-999.0,95,-99.99,,,0.00,Acu-Link.com,2013-07-25 04:46:00,
2013-07-25 01:02:00,54.7,53.9,29.90,WNW,292,0.0,-999.0,97,-99.99,,,0.00,Acu-Link.com,2013-07-25 05:02:00,
2013-07-25 01:17:00,54.3,53.7,29.90,East,90,0.0,-999.0,98,-99.99,,,0.00,Acu-Link.com,2013-07-25 05:17:00,
2013-07-25 01:32:00,53.8,53.2,29.90,SE,135,0.0,-999.0,98,-99.99,,,0.00,Acu-Link.com,2013-07-25 05:32:00,
2013-07-25 01:48:00,53.6,53.0,29.90,ENE,67,1.1,-999.0,98,-99.99,,,0.00,Acu-Link.com,2013-07-25 05:48:00,
2013-07-25 02:03:00,54.7,54.1,29.90,ENE,67,0.0,-999.0,98,-99.99,,,0.00,Acu-Link.com,2013-07-25 06:03:00,
2013-07-25 02:18:00,55.2,54.6,29.90,ESE,112,1.1,-999.0,98,-99.99,,,0.00,Acu-Link.com,2013-07-25 06:18:00,
2013-07-25 02:33:00,54.7,54.1,29.89,ESE,112,0.0,-999.0,98,-99.99,,,0.00,Acu-Link.com,2013-07-25 06:33:00,
2013-07-25 02:49:00,54.3,53.7,29.89,SSE,157,0.0,-999.0,98,-99.99,,,0.00,Acu-Link.com,2013-07-25 06:49:00,
2013-07-25 03:06:00,53.2,52.6,29.89,WNW,292,0.0,-999.0,98,-99.99,,,0.00,Acu-Link.com,2013-07-25 07:06:00,
2013-07-25 03:23:00,52.7,52.2,29.88,South,180,0.0,-999.0,98,-99.99,,,0.00,Acu-Link.com,2013-07-25 07:23:00,
2013-07-25 03:40:00,51.6,51.1,29.88,WNW,292,0.0,-999.0,98,-99.99,,,0.00,Acu-Link.com,2013-07-25 07:40:00,
2013-07-25 03:57:00,50.7,50.2,29.88,SSW,202,0.0,-999.0,98,-99.99,,,0.00,Acu-Link.com,2013-07-25 07:57:00,
2013-07-25 04:12:00,50.7,50.2,29.88,NNE,22,0.0,-999.0,98,-99.99,,,0.00,Acu-Link.com,2013-07-25 08:12:00,
2013-07-25 04:29:00,50.0,49.5,29.88,NNE,22,0.0,-999.0,98,-99.99,,,0.00,Acu-Link.com,2013-07-25 08:29:00,
2013-07-25 04:45:00,49.8,49.3,29.90,WNW,292,0.0,-999.0,98,-99.99,,,0.00,Acu-Link.com,2013-07-25 08:45:00,
2013-07-25 05:02:00,49.3,48.8,29.90,SW,225,0.0,-999.0,98,-99.99,,,0.00,Acu-Link.com,2013-07-25 09:02:00,
2013-07-25 05:17:00,48.9,48.4,29.90,WSW,247,0.0,-999.0,98,-99.99,,,0.00,Acu-Link.com,2013-07-25 09:17:00,
2013-07-25 05:32:00,49.3,48.8,29.91,South,180,0.0,-999.0,98,-99.99,,,0.00,Acu-Link.com,2013-07-25 09:32:00,
2013-07-25 05:49:00,48.6,48.1,29.91,SW,225,0.0,-999.0,98,-99.99,,,0.00,Acu-Link.com,2013-07-25 09:49:00,
2013-07-25 06:04:00,48.4,47.9,29.91,South,180,0.0,-999.0,98,-99.99,,,0.00,Acu-Link.com,2013-07-25 10:04:00,
2013-07-25 06:21:00,48.2,47.7,29.91,NW,315,0.0,-999.0,98,-99.99,,,0.00,Acu-Link.com,2013-07-25 10:21:00,
2013-07-25 06:37:00,49.1,48.6,29.92,WNW,292,0.0,-999.0,98,-99.99,,,0.00,Acu-Link.com,2013-07-25 10:37:00,
2013-07-25 06:52:00,49.8,49.3,29.92,SSW,202,0.0,-999.0,98,-99.99,,,0.00,Acu-Link.com,2013-07-25 10:52:00,
2013-07-25 07:08:00,50.5,50.0,29.92,SSE,157,1.7,-999.0,98,-99.99,,,0.00,Acu-Link.com,2013-07-25 11:08:00,
2013-07-25 07:23:00,52.3,51.8,29.92,South,180,2.7,-999.0,98,-99.99,,,0.00,Acu-Link.com,2013-07-25 11:23:00,
2013-07-25 07:38:00,53.8,53.2,29.94,WSW,247,1.1,-999.0,98,-99.99,,,0.00,Acu-Link.com,2013-07-25 11:38:00,
2013-07-25 07:54:00,56.7,56.1,29.94,WNW,292,0.0,-999.0,98,-99.99,,,0.00,Acu-Link.com,2013-07-25 11:54:00,
2013-07-25 08:09:00,61.7,60.3,29.93,West,270,1.7,-999.0,95,-99.99,,,0.00,Acu-Link.com,2013-07-25 12:09:00,
2013-07-25 08:24:00,62.4,57.5,29.93,SSE,157,1.1,-999.0,84,-99.99,,,0.00,Acu-Link.com,2013-07-25 12:24:00,
2013-07-25 08:59:00,63.7,58.4,29.95,SSE,157,4.2,-999.0,83,-99.99,,,0.00,Acu-Link.com,2013-07-25 12:59:00,
2013-07-25 09:32:00,62.4,57.5,29.95,SW,225,0.0,-999.0,84,-99.99,,,0.00,Acu-Link.com,2013-07-25 13:32:00,